sensor_id;sensor_type;location;lat;lon;timestamp;P1;durP1;ratioP1;P2;durP2;ratioP2
33184;SDS011;19550;42.872;25.494;2022-11-20T00:01:04;17.98;;;6.88;;
33184;SDS011;19550;42.872;25.494;2022-11-20T00:03:31;18.88;;;5.55;;
33184;SDS011;19550;42.872;25.494;2022-11-20T00:06:00;15.60;;;5.63;;
33184;SDS011;19550;42.872;25.494;2022-11-20T00:08:27;21.85;;;6.47;;
33184;SDS011;19550;42.872;25.494;2022-11-20T00:10:54;11.00;;;5.05;;
33184;SDS011;19550;42.872;25.494;2022-11-20T00:13:21;10.48;;;4.30;;
33184;SDS011;19550;42.872;25.494;2022-11-20T00:15:48;12.82;;;4.53;;
33184;SDS011;19550;42.872;25.494;2022-11-20T00:18:15;16.48;;;4.75;;
33184;SDS011;19550;42.872;25.494;2022-11-20T00:20:41;14.88;;;4.35;;
33184;SDS011;19550;42.872;25.494;2022-11-20T00:23:09;14.27;;;4.35;;
33184;SDS011;19550;42.872;25.494;2022-11-20T00:25:36;14.63;;;4.47;;
33184;SDS011;19550;42.872;25.494;2022-11-20T00:28:03;17.30;;;4.60;;
33184;SDS011;19550;42.872;25.494;2022-11-20T00:30:30;16.10;;;5.00;;
33184;SDS011;19550;42.872;25.494;2022-11-20T00:32:57;14.35;;;4.75;;
33184;SDS011;19550;42.872;25.494;2022-11-20T00:35:24;12.75;;;4.25;;
33184;SDS011;19550;42.872;25.494;2022-11-20T00:37:50;15.63;;;4.45;;
33184;SDS011;19550;42.872;25.494;2022-11-20T00:40:19;13.23;;;4.15;;
33184;SDS011;19550;42.872;25.494;2022-11-20T00:42:46;11.85;;;3.95;;
33184;SDS011;19550;42.872;25.494;2022-11-20T00:45:12;13.02;;;4.28;;
33184;SDS011;19550;42.872;25.494;2022-11-20T00:47:39;14.80;;;4.05;;
33184;SDS011;19550;42.872;25.494;2022-11-20T00:50:06;17.75;;;4.32;;
33184;SDS011;19550;42.872;25.494;2022-11-20T00:52:33;15.82;;;4.07;;
33184;SDS011;19550;42.872;25.494;2022-11-20T00:55:00;14.90;;;4.75;;
33184;SDS011;19550;42.872;25.494;2022-11-20T00:57:28;16.25;;;3.90;;
33184;SDS011;19550;42.872;25.494;2022-11-20T00:59:55;11.73;;;4.15;;
33184;SDS011;19550;42.872;25.494;2022-11-20T01:02:22;14.45;;;4.32;;
33184;SDS011;19550;42.872;25.494;2022-11-20T01:04:49;14.48;;;4.20;;
33184;SDS011;19550;42.872;25.494;2022-11-20T01:07:16;10.13;;;3.95;;
33184;SDS011;19550;42.872;25.494;2022-11-20T01:09:42;11.50;;;4.20;;
33184;SDS011;19550;42.872;25.494;2022-11-20T01:12:09;10.38;;;3.70;;
33184;SDS011;19550;42.872;25.494;2022-11-20T01:14:38;12.65;;;3.50;;
33184;SDS011;19550;42.872;25.494;2022-11-20T01:17:04;19.08;;;4.53;;
33184;SDS011;19550;42.872;25.494;2022-11-20T01:19:31;14.45;;;4.10;;
33184;SDS011;19550;42.872;25.494;2022-11-20T01:21:58;14.02;;;4.30;;
33184;SDS011;19550;42.872;25.494;2022-11-20T01:24:25;13.57;;;4.00;;
33184;SDS011;19550;42.872;25.494;2022-11-20T01:26:52;20.52;;;5.78;;
33184;SDS011;19550;42.872;25.494;2022-11-20T01:29:20;32.47;;;13.43;;
33184;SDS011;19550;42.872;25.494;2022-11-20T01:31:49;19.40;;;9.13;;
33184;SDS011;19550;42.872;25.494;2022-11-20T01:34:17;16.90;;;6.30;;
33184;SDS011;19550;42.872;25.494;2022-11-20T01:36:45;19.23;;;7.60;;
33184;SDS011;19550;42.872;25.494;2022-11-20T01:39:13;12.27;;;4.40;;
33184;SDS011;19550;42.872;25.494;2022-11-20T01:41:41;15.15;;;4.50;;
33184;SDS011;19550;42.872;25.494;2022-11-20T01:44:43;15.45;;;4.72;;
33184;SDS011;19550;42.872;25.494;2022-11-20T01:47:17;15.45;;;4.82;;
33184;SDS011;19550;42.872;25.494;2022-11-20T01:49:50;14.77;;;4.13;;
33184;SDS011;19550;42.872;25.494;2022-11-20T01:52:21;12.38;;;3.85;;
33184;SDS011;19550;42.872;25.494;2022-11-20T01:54:52;16.27;;;3.90;;
33184;SDS011;19550;42.872;25.494;2022-11-20T01:57:22;24.15;;;4.10;;
33184;SDS011;19550;42.872;25.494;2022-11-20T01:59:53;15.27;;;3.90;;
33184;SDS011;19550;42.872;25.494;2022-11-20T02:02:27;13.18;;;4.05;;
33184;SDS011;19550;42.872;25.494;2022-11-20T02:04:54;13.82;;;4.43;;
33184;SDS011;19550;42.872;25.494;2022-11-20T02:07:27;16.77;;;5.30;;
33184;SDS011;19550;42.872;25.494;2022-11-20T02:09:54;13.77;;;4.57;;
33184;SDS011;19550;42.872;25.494;2022-11-20T02:12:21;13.52;;;4.20;;
33184;SDS011;19550;42.872;25.494;2022-11-20T02:15:05;16.45;;;4.30;;
33184;SDS011;19550;42.872;25.494;2022-11-20T02:17:34;13.80;;;4.55;;
33184;SDS011;19550;42.872;25.494;2022-11-20T02:20:01;21.23;;;5.40;;
33184;SDS011;19550;42.872;25.494;2022-11-20T02:22:30;13.88;;;4.43;;
33184;SDS011;19550;42.872;25.494;2022-11-20T02:25:03;11.18;;;4.22;;
33184;SDS011;19550;42.872;25.494;2022-11-20T02:27:33;18.75;;;8.15;;
33184;SDS011;19550;42.872;25.494;2022-11-20T02:30:00;14.68;;;5.78;;
33184;SDS011;19550;42.872;25.494;2022-11-20T02:32:30;14.23;;;4.45;;
33184;SDS011;19550;42.872;25.494;2022-11-20T02:34:58;13.48;;;4.10;;
33184;SDS011;19550;42.872;25.494;2022-11-20T02:37:32;13.63;;;4.70;;
33184;SDS011;19550;42.872;25.494;2022-11-20T02:40:05;13.98;;;4.60;;
33184;SDS011;19550;42.872;25.494;2022-11-20T02:44:59;13.57;;;4.50;;
33184;SDS011;19550;42.872;25.494;2022-11-20T02:47:26;11.63;;;4.68;;
33184;SDS011;19550;42.872;25.494;2022-11-20T02:49:53;18.30;;;4.50;;
33184;SDS011;19550;42.872;25.494;2022-11-20T02:52:20;17.08;;;4.63;;
33184;SDS011;19550;42.872;25.494;2022-11-20T02:54:47;12.48;;;4.93;;
33184;SDS011;19550;42.872;25.494;2022-11-20T02:57:15;12.23;;;4.93;;
33184;SDS011;19550;42.872;25.494;2022-11-20T02:59:42;17.55;;;4.82;;
33184;SDS011;19550;42.872;25.494;2022-11-20T03:02:08;11.45;;;5.53;;
33184;SDS011;19550;42.872;25.494;2022-11-20T03:04:35;13.30;;;5.10;;
33184;SDS011;19550;42.872;25.494;2022-11-20T03:07:02;20.50;;;5.78;;
33184;SDS011;19550;42.872;25.494;2022-11-20T03:09:29;13.73;;;4.32;;
33184;SDS011;19550;42.872;25.494;2022-11-20T03:11:56;13.50;;;4.30;;
33184;SDS011;19550;42.872;25.494;2022-11-20T03:14:24;19.25;;;4.85;;
33184;SDS011;19550;42.872;25.494;2022-11-20T03:16:51;28.40;;;6.60;;
33184;SDS011;19550;42.872;25.494;2022-11-20T03:19:18;17.60;;;6.38;;
33184;SDS011;19550;42.872;25.494;2022-11-20T03:21:45;14.65;;;4.85;;
33184;SDS011;19550;42.872;25.494;2022-11-20T03:24:13;11.32;;;3.83;;
33184;SDS011;19550;42.872;25.494;2022-11-20T03:26:40;20.35;;;4.55;;
33184;SDS011;19550;42.872;25.494;2022-11-20T03:29:07;19.52;;;4.38;;
33184;SDS011;19550;42.872;25.494;2022-11-20T03:31:36;14.07;;;4.93;;
33184;SDS011;19550;42.872;25.494;2022-11-20T03:34:05;11.48;;;3.97;;
33184;SDS011;19550;42.872;25.494;2022-11-20T03:36:33;17.13;;;4.45;;
33184;SDS011;19550;42.872;25.494;2022-11-20T03:38:59;18.45;;;4.32;;
33184;SDS011;19550;42.872;25.494;2022-11-20T03:41:27;12.15;;;4.63;;
33184;SDS011;19550;42.872;25.494;2022-11-20T03:43:57;12.45;;;4.30;;
33184;SDS011;19550;42.872;25.494;2022-11-20T03:46:25;16.10;;;4.03;;
33184;SDS011;19550;42.872;25.494;2022-11-20T03:48:54;16.55;;;4.03;;
33184;SDS011;19550;42.872;25.494;2022-11-20T03:51:22;14.48;;;4.43;;
33184;SDS011;19550;42.872;25.494;2022-11-20T03:53:50;16.65;;;4.88;;
33184;SDS011;19550;42.872;25.494;2022-11-20T03:56:19;13.43;;;3.95;;
33184;SDS011;19550;42.872;25.494;2022-11-20T03:58:49;13.30;;;4.53;;
33184;SDS011;19550;42.872;25.494;2022-11-20T04:01:17;14.40;;;4.10;;
33184;SDS011;19550;42.872;25.494;2022-11-20T04:03:45;12.23;;;4.13;;
33184;SDS011;19550;42.872;25.494;2022-11-20T04:06:15;18.90;;;4.95;;
33184;SDS011;19550;42.872;25.494;2022-11-20T04:08:43;17.38;;;5.35;;
33184;SDS011;19550;42.872;25.494;2022-11-20T04:11:11;14.95;;;4.32;;
33184;SDS011;19550;42.872;25.494;2022-11-20T04:13:39;15.10;;;4.45;;
33184;SDS011;19550;42.872;25.494;2022-11-20T04:16:07;17.88;;;3.80;;
33184;SDS011;19550;42.872;25.494;2022-11-20T04:18:34;10.80;;;3.70;;
33184;SDS011;19550;42.872;25.494;2022-11-20T04:21:02;11.50;;;3.17;;
33184;SDS011;19550;42.872;25.494;2022-11-20T04:23:33;15.05;;;4.05;;
33184;SDS011;19550;42.872;25.494;2022-11-20T04:26:00;11.68;;;3.22;;
33184;SDS011;19550;42.872;25.494;2022-11-20T04:28:28;10.57;;;3.55;;
33184;SDS011;19550;42.872;25.494;2022-11-20T04:31:01;14.32;;;3.83;;
33184;SDS011;19550;42.872;25.494;2022-11-20T04:33:28;11.52;;;3.30;;
33184;SDS011;19550;42.872;25.494;2022-11-20T04:35:55;12.65;;;3.53;;
33184;SDS011;19550;42.872;25.494;2022-11-20T04:38:25;12.57;;;3.80;;
33184;SDS011;19550;42.872;25.494;2022-11-20T04:40:56;9.68;;;3.08;;
33184;SDS011;19550;42.872;25.494;2022-11-20T04:43:24;14.77;;;3.50;;
33184;SDS011;19550;42.872;25.494;2022-11-20T04:45:51;32.45;;;13.23;;
33184;SDS011;19550;42.872;25.494;2022-11-20T04:48:18;26.40;;;10.80;;
33184;SDS011;19550;42.872;25.494;2022-11-20T04:50:45;14.13;;;5.15;;
33184;SDS011;19550;42.872;25.494;2022-11-20T04:53:12;20.80;;;4.97;;
33184;SDS011;19550;42.872;25.494;2022-11-20T04:55:39;21.17;;;9.48;;
33184;SDS011;19550;42.872;25.494;2022-11-20T04:58:07;38.97;;;19.00;;
33184;SDS011;19550;42.872;25.494;2022-11-20T05:00:34;28.85;;;12.90;;
33184;SDS011;19550;42.872;25.494;2022-11-20T05:03:01;22.90;;;9.02;;
33184;SDS011;19550;42.872;25.494;2022-11-20T05:05:28;27.33;;;13.20;;
33184;SDS011;19550;42.872;25.494;2022-11-20T05:07:55;21.33;;;6.43;;
33184;SDS011;19550;42.872;25.494;2022-11-20T05:10:23;15.18;;;5.90;;
33184;SDS011;19550;42.872;25.494;2022-11-20T05:12:50;11.52;;;4.13;;
33184;SDS011;19550;42.872;25.494;2022-11-20T05:15:18;10.93;;;2.63;;
33184;SDS011;19550;42.872;25.494;2022-11-20T05:17:46;8.70;;;2.72;;
33184;SDS011;19550;42.872;25.494;2022-11-20T05:20:14;18.15;;;3.40;;
33184;SDS011;19550;42.872;25.494;2022-11-20T05:22:41;10.07;;;2.75;;
33184;SDS011;19550;42.872;25.494;2022-11-20T05:25:08;11.82;;;3.45;;
33184;SDS011;19550;42.872;25.494;2022-11-20T05:27:35;6.68;;;3.00;;
33184;SDS011;19550;42.872;25.494;2022-11-20T05:30:02;10.38;;;3.38;;
33184;SDS011;19550;42.872;25.494;2022-11-20T05:32:30;8.77;;;3.42;;
33184;SDS011;19550;42.872;25.494;2022-11-20T05:34:57;12.95;;;3.67;;
33184;SDS011;19550;42.872;25.494;2022-11-20T05:37:24;10.98;;;3.22;;
33184;SDS011;19550;42.872;25.494;2022-11-20T05:39:51;10.65;;;3.05;;
33184;SDS011;19550;42.872;25.494;2022-11-20T05:42:17;9.68;;;3.67;;
33184;SDS011;19550;42.872;25.494;2022-11-20T05:44:56;10.93;;;3.47;;
33184;SDS011;19550;42.872;25.494;2022-11-20T05:47:23;10.60;;;2.88;;
33184;SDS011;19550;42.872;25.494;2022-11-20T05:49:51;12.02;;;2.67;;
33184;SDS011;19550;42.872;25.494;2022-11-20T05:52:18;7.18;;;2.25;;
33184;SDS011;19550;42.872;25.494;2022-11-20T05:54:45;13.05;;;3.55;;
33184;SDS011;19550;42.872;25.494;2022-11-20T05:57:12;7.30;;;2.55;;
33184;SDS011;19550;42.872;25.494;2022-11-20T05:59:39;9.88;;;2.63;;
33184;SDS011;19550;42.872;25.494;2022-11-20T06:02:05;10.35;;;2.70;;
33184;SDS011;19550;42.872;25.494;2022-11-20T06:04:32;9.55;;;2.58;;
33184;SDS011;19550;42.872;25.494;2022-11-20T06:07:00;8.20;;;2.58;;
33184;SDS011;19550;42.872;25.494;2022-11-20T06:09:27;8.13;;;2.58;;
33184;SDS011;19550;42.872;25.494;2022-11-20T06:11:54;13.10;;;2.78;;
33184;SDS011;19550;42.872;25.494;2022-11-20T06:14:21;12.73;;;3.25;;
33184;SDS011;19550;42.872;25.494;2022-11-20T06:16:48;10.35;;;3.47;;
33184;SDS011;19550;42.872;25.494;2022-11-20T06:19:15;10.40;;;2.92;;
33184;SDS011;19550;42.872;25.494;2022-11-20T06:21:41;10.57;;;2.85;;
33184;SDS011;19550;42.872;25.494;2022-11-20T06:24:10;9.00;;;2.55;;
33184;SDS011;19550;42.872;25.494;2022-11-20T06:26:37;12.38;;;3.00;;
33184;SDS011;19550;42.872;25.494;2022-11-20T06:29:03;9.82;;;3.22;;
33184;SDS011;19550;42.872;25.494;2022-11-20T06:31:30;13.73;;;3.47;;
33184;SDS011;19550;42.872;25.494;2022-11-20T06:34:00;10.27;;;2.78;;
33184;SDS011;19550;42.872;25.494;2022-11-20T06:36:27;10.13;;;3.22;;
33184;SDS011;19550;42.872;25.494;2022-11-20T06:38:54;10.05;;;3.78;;
33184;SDS011;19550;42.872;25.494;2022-11-20T06:41:22;14.65;;;2.97;;
33184;SDS011;19550;42.872;25.494;2022-11-20T06:43:49;17.80;;;5.00;;
33184;SDS011;19550;42.872;25.494;2022-11-20T06:46:16;19.45;;;7.25;;
33184;SDS011;19550;42.872;25.494;2022-11-20T06:48:44;13.82;;;2.92;;
33184;SDS011;19550;42.872;25.494;2022-11-20T06:51:12;9.50;;;3.15;;
33184;SDS011;19550;42.872;25.494;2022-11-20T06:53:39;7.88;;;2.40;;
33184;SDS011;19550;42.872;25.494;2022-11-20T06:56:06;10.27;;;3.40;;
33184;SDS011;19550;42.872;25.494;2022-11-20T06:58:34;10.63;;;3.35;;
33184;SDS011;19550;42.872;25.494;2022-11-20T07:01:02;13.82;;;3.38;;
33184;SDS011;19550;42.872;25.494;2022-11-20T07:03:31;19.47;;;14.10;;
33184;SDS011;19550;42.872;25.494;2022-11-20T07:05:58;13.18;;;5.22;;
33184;SDS011;19550;42.872;25.494;2022-11-20T07:08:26;11.52;;;4.65;;
33184;SDS011;19550;42.872;25.494;2022-11-20T07:10:57;8.88;;;2.70;;
33184;SDS011;19550;42.872;25.494;2022-11-20T07:13:25;7.72;;;2.65;;
33184;SDS011;19550;42.872;25.494;2022-11-20T07:15:54;9.45;;;2.90;;
33184;SDS011;19550;42.872;25.494;2022-11-20T07:18:25;7.32;;;2.70;;
33184;SDS011;19550;42.872;25.494;2022-11-20T07:20:52;11.48;;;3.40;;
33184;SDS011;19550;42.872;25.494;2022-11-20T07:23:18;9.02;;;2.67;;
33184;SDS011;19550;42.872;25.494;2022-11-20T07:25:45;15.48;;;4.72;;
33184;SDS011;19550;42.872;25.494;2022-11-20T07:28:12;13.07;;;5.05;;
33184;SDS011;19550;42.872;25.494;2022-11-20T07:30:39;10.80;;;5.00;;
33184;SDS011;19550;42.872;25.494;2022-11-20T07:33:07;6.95;;;2.88;;
33184;SDS011;19550;42.872;25.494;2022-11-20T07:35:34;7.25;;;2.42;;
33184;SDS011;19550;42.872;25.494;2022-11-20T07:38:01;12.45;;;3.45;;
33184;SDS011;19550;42.872;25.494;2022-11-20T07:40:27;11.70;;;3.28;;
33184;SDS011;19550;42.872;25.494;2022-11-20T07:42:54;13.88;;;4.15;;
33184;SDS011;19550;42.872;25.494;2022-11-20T07:45:22;14.93;;;3.22;;
33184;SDS011;19550;42.872;25.494;2022-11-20T07:47:50;11.85;;;2.75;;
33184;SDS011;19550;42.872;25.494;2022-11-20T07:50:18;8.60;;;3.55;;
33184;SDS011;19550;42.872;25.494;2022-11-20T07:52:46;12.07;;;4.05;;
33184;SDS011;19550;42.872;25.494;2022-11-20T07:55:13;7.22;;;2.45;;
33184;SDS011;19550;42.872;25.494;2022-11-20T07:57:41;7.85;;;2.80;;
33184;SDS011;19550;42.872;25.494;2022-11-20T08:00:08;7.85;;;2.63;;
33184;SDS011;19550;42.872;25.494;2022-11-20T08:02:37;13.77;;;3.30;;
33184;SDS011;19550;42.872;25.494;2022-11-20T08:05:05;13.57;;;3.20;;
33184;SDS011;19550;42.872;25.494;2022-11-20T08:07:36;13.15;;;2.80;;
33184;SDS011;19550;42.872;25.494;2022-11-20T08:10:04;8.00;;;3.10;;
33184;SDS011;19550;42.872;25.494;2022-11-20T08:12:31;11.40;;;2.83;;
33184;SDS011;19550;42.872;25.494;2022-11-20T08:15:15;13.35;;;2.80;;
33184;SDS011;19550;42.872;25.494;2022-11-20T08:17:42;13.23;;;3.55;;
33184;SDS011;19550;42.872;25.494;2022-11-20T08:20:09;13.88;;;3.65;;
33184;SDS011;19550;42.872;25.494;2022-11-20T08:22:38;13.30;;;3.05;;
33184;SDS011;19550;42.872;25.494;2022-11-20T08:25:05;11.85;;;3.00;;
33184;SDS011;19550;42.872;25.494;2022-11-20T08:27:32;10.00;;;2.90;;
33184;SDS011;19550;42.872;25.494;2022-11-20T08:29:59;12.55;;;3.53;;
33184;SDS011;19550;42.872;25.494;2022-11-20T08:32:26;10.13;;;3.10;;
33184;SDS011;19550;42.872;25.494;2022-11-20T08:34:53;11.95;;;2.95;;
33184;SDS011;19550;42.872;25.494;2022-11-20T08:37:20;10.10;;;3.55;;
33184;SDS011;19550;42.872;25.494;2022-11-20T08:39:48;12.57;;;3.60;;
33184;SDS011;19550;42.872;25.494;2022-11-20T08:42:15;14.23;;;3.63;;
33184;SDS011;19550;42.872;25.494;2022-11-20T08:44:42;13.43;;;3.22;;
33184;SDS011;19550;42.872;25.494;2022-11-20T08:47:09;11.23;;;2.90;;
33184;SDS011;19550;42.872;25.494;2022-11-20T08:49:36;11.23;;;2.97;;
33184;SDS011;19550;42.872;25.494;2022-11-20T08:52:03;11.25;;;2.75;;
33184;SDS011;19550;42.872;25.494;2022-11-20T08:54:30;9.90;;;2.67;;
33184;SDS011;19550;42.872;25.494;2022-11-20T08:56:58;8.20;;;2.65;;
33184;SDS011;19550;42.872;25.494;2022-11-20T08:59:25;9.30;;;3.40;;
33184;SDS011;19550;42.872;25.494;2022-11-20T09:01:52;8.85;;;2.60;;
33184;SDS011;19550;42.872;25.494;2022-11-20T09:04:19;14.23;;;3.10;;
33184;SDS011;19550;42.872;25.494;2022-11-20T09:06:46;9.48;;;2.65;;
33184;SDS011;19550;42.872;25.494;2022-11-20T09:09:16;14.45;;;3.15;;
33184;SDS011;19550;42.872;25.494;2022-11-20T09:11:42;9.68;;;2.45;;
33184;SDS011;19550;42.872;25.494;2022-11-20T09:14:11;9.70;;;2.55;;
33184;SDS011;19550;42.872;25.494;2022-11-20T09:16:38;7.95;;;2.60;;
33184;SDS011;19550;42.872;25.494;2022-11-20T09:19:04;12.05;;;2.90;;
33184;SDS011;19550;42.872;25.494;2022-11-20T09:21:31;10.15;;;2.72;;
33184;SDS011;19550;42.872;25.494;2022-11-20T09:23:58;11.07;;;2.42;;
33184;SDS011;19550;42.872;25.494;2022-11-20T09:26:25;9.82;;;2.17;;
33184;SDS011;19550;42.872;25.494;2022-11-20T09:28:52;7.35;;;2.33;;
33184;SDS011;19550;42.872;25.494;2022-11-20T09:31:23;11.55;;;2.53;;
33184;SDS011;19550;42.872;25.494;2022-11-20T09:33:51;10.73;;;3.20;;
33184;SDS011;19550;42.872;25.494;2022-11-20T09:36:18;10.15;;;2.67;;
33184;SDS011;19550;42.872;25.494;2022-11-20T09:38:45;13.95;;;3.03;;
33184;SDS011;19550;42.872;25.494;2022-11-20T09:41:18;10.45;;;2.90;;
33184;SDS011;19550;42.872;25.494;2022-11-20T09:44:01;10.40;;;2.58;;
33184;SDS011;19550;42.872;25.494;2022-11-20T09:46:38;7.57;;;2.33;;
33184;SDS011;19550;42.872;25.494;2022-11-20T09:49:15;6.82;;;2.47;;
33184;SDS011;19550;42.872;25.494;2022-11-20T09:51:52;19.35;;;3.70;;
33184;SDS011;19550;42.872;25.494;2022-11-20T09:54:26;6.90;;;2.35;;
33184;SDS011;19550;42.872;25.494;2022-11-20T09:56:58;9.75;;;2.70;;
33184;SDS011;19550;42.872;25.494;2022-11-20T09:59:35;10.60;;;2.30;;
33184;SDS011;19550;42.872;25.494;2022-11-20T10:02:15;10.68;;;2.45;;
33184;SDS011;19550;42.872;25.494;2022-11-20T10:04:44;11.43;;;2.67;;
33184;SDS011;19550;42.872;25.494;2022-11-20T10:07:19;11.43;;;2.83;;
33184;SDS011;19550;42.872;25.494;2022-11-20T10:09:51;11.13;;;2.90;;
33184;SDS011;19550;42.872;25.494;2022-11-20T10:12:22;8.50;;;2.65;;
33184;SDS011;19550;42.872;25.494;2022-11-20T10:15:03;11.93;;;2.80;;
33184;SDS011;19550;42.872;25.494;2022-11-20T10:17:49;11.95;;;2.70;;
33184;SDS011;19550;42.872;25.494;2022-11-20T10:20:32;13.85;;;3.08;;
33184;SDS011;19550;42.872;25.494;2022-11-20T10:23:12;16.02;;;3.05;;
33184;SDS011;19550;42.872;25.494;2022-11-20T10:26:00;11.13;;;2.70;;
33184;SDS011;19550;42.872;25.494;2022-11-20T10:28:33;17.42;;;3.20;;
33184;SDS011;19550;42.872;25.494;2022-11-20T10:31:08;12.73;;;2.72;;
33184;SDS011;19550;42.872;25.494;2022-11-20T10:33:40;16.02;;;3.03;;
33184;SDS011;19550;42.872;25.494;2022-11-20T10:36:13;12.23;;;2.92;;
33184;SDS011;19550;42.872;25.494;2022-11-20T10:38:46;20.40;;;4.18;;
33184;SDS011;19550;42.872;25.494;2022-11-20T10:41:20;12.30;;;2.97;;
33184;SDS011;19550;42.872;25.494;2022-11-20T10:43:56;11.20;;;2.85;;
33184;SDS011;19550;42.872;25.494;2022-11-20T10:46:32;10.23;;;3.20;;
33184;SDS011;19550;42.872;25.494;2022-11-20T10:49:04;12.43;;;2.95;;
33184;SDS011;19550;42.872;25.494;2022-11-20T10:51:35;15.57;;;2.90;;
33184;SDS011;19550;42.872;25.494;2022-11-20T10:54:10;15.77;;;3.72;;
33184;SDS011;19550;42.872;25.494;2022-11-20T10:56:45;9.52;;;2.45;;
33184;SDS011;19550;42.872;25.494;2022-11-20T10:59:30;9.65;;;2.97;;
33184;SDS011;19550;42.872;25.494;2022-11-20T11:02:14;13.45;;;2.90;;
33184;SDS011;19550;42.872;25.494;2022-11-20T11:04:44;16.05;;;3.35;;
33184;SDS011;19550;42.872;25.494;2022-11-20T11:07:13;12.73;;;3.05;;
33184;SDS011;19550;42.872;25.494;2022-11-20T11:09:44;14.95;;;3.17;;
33184;SDS011;19550;42.872;25.494;2022-11-20T11:12:14;16.15;;;3.70;;
33184;SDS011;19550;42.872;25.494;2022-11-20T11:14:42;11.45;;;3.45;;
33184;SDS011;19550;42.872;25.494;2022-11-20T11:17:21;10.20;;;3.22;;
33184;SDS011;19550;42.872;25.494;2022-11-20T11:19:58;13.10;;;3.33;;
33184;SDS011;19550;42.872;25.494;2022-11-20T11:22:31;16.58;;;2.75;;
33184;SDS011;19550;42.872;25.494;2022-11-20T11:25:00;14.63;;;4.30;;
33184;SDS011;19550;42.872;25.494;2022-11-20T11:27:27;18.33;;;3.92;;
33184;SDS011;19550;42.872;25.494;2022-11-20T11:30:11;55.90;;;21.75;;
33184;SDS011;19550;42.872;25.494;2022-11-20T11:32:40;17.48;;;3.60;;
33184;SDS011;19550;42.872;25.494;2022-11-20T11:35:18;14.95;;;3.70;;
33184;SDS011;19550;42.872;25.494;2022-11-20T11:37:50;17.23;;;2.90;;
33184;SDS011;19550;42.872;25.494;2022-11-20T11:40:19;14.03;;;3.70;;
33184;SDS011;19550;42.872;25.494;2022-11-20T11:42:50;18.73;;;3.57;;
33184;SDS011;19550;42.872;25.494;2022-11-20T11:45:21;14.60;;;3.47;;
33184;SDS011;19550;42.872;25.494;2022-11-20T11:47:48;17.02;;;4.45;;
33184;SDS011;19550;42.872;25.494;2022-11-20T11:50:21;14.25;;;3.00;;
33184;SDS011;19550;42.872;25.494;2022-11-20T11:52:57;23.42;;;4.05;;
33184;SDS011;19550;42.872;25.494;2022-11-20T11:55:31;19.70;;;3.92;;
33184;SDS011;19550;42.872;25.494;2022-11-20T11:58:09;16.42;;;3.40;;
33184;SDS011;19550;42.872;25.494;2022-11-20T12:00:41;19.67;;;3.30;;
33184;SDS011;19550;42.872;25.494;2022-11-20T12:03:18;22.10;;;4.18;;
33184;SDS011;19550;42.872;25.494;2022-11-20T12:05:53;18.15;;;3.72;;
33184;SDS011;19550;42.872;25.494;2022-11-20T12:08:26;18.35;;;3.45;;
33184;SDS011;19550;42.872;25.494;2022-11-20T12:10:59;23.05;;;3.92;;
33184;SDS011;19550;42.872;25.494;2022-11-20T12:13:35;22.02;;;3.85;;
33184;SDS011;19550;42.872;25.494;2022-11-20T12:16:11;18.50;;;3.63;;
33184;SDS011;19550;42.872;25.494;2022-11-20T12:18:40;16.60;;;8.82;;
33184;SDS011;19550;42.872;25.494;2022-11-20T12:21:24;18.10;;;8.45;;
33184;SDS011;19550;42.872;25.494;2022-11-20T12:24:04;21.48;;;10.70;;
33184;SDS011;19550;42.872;25.494;2022-11-20T12:26:44;24.60;;;12.75;;
33184;SDS011;19550;42.872;25.494;2022-11-20T12:29:22;23.52;;;15.90;;
33184;SDS011;19550;42.872;25.494;2022-11-20T12:32:03;64.43;;;33.67;;
33184;SDS011;19550;42.872;25.494;2022-11-20T12:34:53;37.40;;;24.48;;
33184;SDS011;19550;42.872;25.494;2022-11-20T12:37:35;28.23;;;18.08;;
33184;SDS011;19550;42.872;25.494;2022-11-20T12:40:15;25.55;;;16.35;;
33184;SDS011;19550;42.872;25.494;2022-11-20T12:42:55;27.98;;;16.35;;
33184;SDS011;19550;42.872;25.494;2022-11-20T12:45:49;50.40;;;24.85;;
33184;SDS011;19550;42.872;25.494;2022-11-20T12:48:27;131.88;;;58.25;;
33184;SDS011;19550;42.872;25.494;2022-11-20T12:51:09;60.60;;;30.27;;
33184;SDS011;19550;42.872;25.494;2022-11-20T12:53:51;44.85;;;24.88;;
33184;SDS011;19550;42.872;25.494;2022-11-20T12:59:02;35.75;;;20.65;;
33184;SDS011;19550;42.872;25.494;2022-11-20T13:01:44;33.92;;;21.30;;
33184;SDS011;19550;42.872;25.494;2022-11-20T13:04:18;35.88;;;21.40;;
33184;SDS011;19550;42.872;25.494;2022-11-20T13:06:57;37.15;;;20.58;;
33184;SDS011;19550;42.872;25.494;2022-11-20T13:09:26;34.17;;;21.15;;
33184;SDS011;19550;42.872;25.494;2022-11-20T13:11:57;39.58;;;24.15;;
33184;SDS011;19550;42.872;25.494;2022-11-20T13:14:31;80.70;;;53.97;;
33184;SDS011;19550;42.872;25.494;2022-11-20T13:17:04;97.07;;;57.13;;
33184;SDS011;19550;42.872;25.494;2022-11-20T13:19:37;39.58;;;25.65;;
33184;SDS011;19550;42.872;25.494;2022-11-20T13:22:05;38.90;;;27.17;;
33184;SDS011;19550;42.872;25.494;2022-11-20T13:24:33;32.22;;;20.40;;
33184;SDS011;19550;42.872;25.494;2022-11-20T13:27:04;30.45;;;20.67;;
33184;SDS011;19550;42.872;25.494;2022-11-20T13:29:45;30.75;;;19.92;;
33184;SDS011;19550;42.872;25.494;2022-11-20T13:32:13;33.60;;;21.42;;
33184;SDS011;19550;42.872;25.494;2022-11-20T13:34:51;35.95;;;20.75;;
33184;SDS011;19550;42.872;25.494;2022-11-20T13:37:27;35.45;;;23.40;;
33184;SDS011;19550;42.872;25.494;2022-11-20T13:40:19;32.58;;;22.90;;
33184;SDS011;19550;42.872;25.494;2022-11-20T13:42:54;40.85;;;27.48;;
33184;SDS011;19550;42.872;25.494;2022-11-20T13:45:23;39.15;;;28.20;;
33184;SDS011;19550;42.872;25.494;2022-11-20T13:47:52;34.67;;;24.30;;
33184;SDS011;19550;42.872;25.494;2022-11-20T13:50:21;36.33;;;23.48;;
33184;SDS011;19550;42.872;25.494;2022-11-20T13:52:59;57.58;;;34.88;;
33184;SDS011;19550;42.872;25.494;2022-11-20T13:55:38;54.75;;;34.25;;
33184;SDS011;19550;42.872;25.494;2022-11-20T13:58:28;45.45;;;33.00;;
33184;SDS011;19550;42.872;25.494;2022-11-20T14:01:08;50.53;;;32.10;;
33184;SDS011;19550;42.872;25.494;2022-11-20T14:03:37;30.25;;;18.67;;
33184;SDS011;19550;42.872;25.494;2022-11-20T14:06:05;43.85;;;30.10;;
33184;SDS011;19550;42.872;25.494;2022-11-20T14:08:40;30.02;;;19.70;;
33184;SDS011;19550;42.872;25.494;2022-11-20T14:11:16;47.95;;;31.80;;
33184;SDS011;19550;42.872;25.494;2022-11-20T14:13:52;34.20;;;22.25;;
33184;SDS011;19550;42.872;25.494;2022-11-20T14:16:28;31.80;;;22.00;;
33184;SDS011;19550;42.872;25.494;2022-11-20T14:18:56;26.00;;;17.25;;
33184;SDS011;19550;42.872;25.494;2022-11-20T14:21:38;29.40;;;21.02;;
33184;SDS011;19550;42.872;25.494;2022-11-20T14:24:05;32.33;;;21.05;;
33184;SDS011;19550;42.872;25.494;2022-11-20T14:26:34;27.73;;;19.02;;
33184;SDS011;19550;42.872;25.494;2022-11-20T14:29:02;33.37;;;21.73;;
33184;SDS011;19550;42.872;25.494;2022-11-20T14:31:29;28.25;;;19.67;;
33184;SDS011;19550;42.872;25.494;2022-11-20T14:33:56;31.83;;;18.58;;
33184;SDS011;19550;42.872;25.494;2022-11-20T14:36:24;30.38;;;19.08;;
33184;SDS011;19550;42.872;25.494;2022-11-20T14:38:52;33.95;;;23.25;;
33184;SDS011;19550;42.872;25.494;2022-11-20T14:41:20;27.20;;;17.02;;
33184;SDS011;19550;42.872;25.494;2022-11-20T14:43:50;22.13;;;14.73;;